PWSweather.com
Personal Weather Stations
Station Observations
KIDNAMPA57
Canyon County Idaho, Nampa, ID 83687

Canyon County IdahoNampa, ID 83687

Lat: 43.587235, Lon: -116.49831979999999

Elevation: 2615

Station Type: Davis Vantage Pro 2

www.rockinglweather.com

High Low Average
Temperature 47.3°F8.5°C 36.6°F2.6°C 42.3°F5.7°C
Dew Point 40.8°F4.9°C 32.5°F0.3°C 36.1°F2.3°C
Winds 19.0 mph 30.6 kmh Calm Calm 5.0 mph SSE8.0 kmh SSE
Wind Gusts 23.0 mph37.0 kmh -- 10.0 mph16.1 kmh
Humidity 91% 59% 79%
Pressure 29.41 in995.9 mb 29.23 in989.8 mb -
Precipitation 0.00 in0.0 mm - -
Hour Temp Dew Point Humidity Winds Wind Gusts Pressure Precip Precip Rate Daily Precip Total
12:00 AM 43.6°F6.4°C 39.1°F3.9°C 84% 5.0 mph ESE8.0 kmh ESE 15.0 mph24.1 kmh 29.33 in993.2 mb 0.00 in0.0 mm 0.00 in0.0 mm 0.00 in0.0 mm
12:05 AM 43.5°F6.4°C 39.3°F4.1°C 85% 4.0 mph ESE6.4 kmh ESE 14.0 mph22.5 kmh 29.33 in993.2 mb 0.00 in0.0 mm 0.00 in0.0 mm 0.00 in0.0 mm
12:10 AM 43.3°F6.3°C 39.1°F3.9°C 85% 5.0 mph SE8.0 kmh SE 14.0 mph22.5 kmh 29.33 in993.2 mb 0.00 in0.0 mm 0.00 in0.0 mm 0.00 in0.0 mm
12:15 AM 43.2°F6.2°C 39.3°F4.1°C 86% 11.0 mph SE17.7 kmh SE 17.0 mph27.4 kmh 29.33 in993.2 mb 0.00 in0.0 mm 0.00 in0.0 mm 0.00 in0.0 mm
12:20 AM 43.1°F6.2°C 39.2°F4.0°C 86% 4.0 mph SE6.4 kmh SE 14.0 mph22.5 kmh 29.33 in993.2 mb 0.00 in0.0 mm 0.00 in0.0 mm 0.00 in0.0 mm
12:25 AM 43.0°F6.1°C 39.1°F3.9°C 86% 7.0 mph ESE11.3 kmh ESE 14.0 mph22.5 kmh 29.32 in992.9 mb 0.00 in0.0 mm 0.00 in0.0 mm 0.00 in0.0 mm
12:30 AM 43.0°F6.1°C 39.1°F3.9°C 86% 6.0 mph ESE9.7 kmh ESE 15.0 mph24.1 kmh 29.32 in992.9 mb 0.00 in0.0 mm 0.00 in0.0 mm 0.00 in0.0 mm
12:35 AM 42.9°F6.1°C 39.0°F3.9°C 86% 7.0 mph ESE11.3 kmh ESE 14.0 mph22.5 kmh 29.32 in992.9 mb 0.00 in0.0 mm 0.00 in0.0 mm 0.00 in0.0 mm
12:40 AM 43.0°F6.1°C 39.1°F3.9°C 86% 7.0 mph SE11.3 kmh SE 14.0 mph22.5 kmh 29.32 in992.9 mb 0.00 in0.0 mm 0.00 in0.0 mm 0.00 in0.0 mm
12:45 AM 42.9°F6.1°C 39.0°F3.9°C 86% 4.0 mph SE6.4 kmh SE 14.0 mph22.5 kmh 29.32 in992.9 mb 0.00 in0.0 mm 0.00 in0.0 mm 0.00 in0.0 mm
12:50 AM 42.9°F6.1°C 39.0°F3.9°C 86% 6.0 mph S9.7 kmh S 9.0 mph14.5 kmh 29.33 in993.2 mb 0.00 in0.0 mm 0.00 in0.0 mm 0.00 in0.0 mm
12:55 AM 42.8°F6.0°C 38.9°F3.8°C 86% 4.0 mph SE6.4 kmh SE 10.0 mph16.1 kmh 29.33 in993.2 mb 0.00 in0.0 mm 0.00 in0.0 mm 0.00 in0.0 mm
01:00 AM 42.8°F6.0°C 38.9°F3.8°C 86% 8.0 mph SE12.9 kmh SE 10.0 mph16.1 kmh 29.33 in993.2 mb 0.00 in0.0 mm 0.00 in0.0 mm 0.00 in0.0 mm
01:05 AM 42.9°F6.1°C 39.0°F3.9°C 86% 8.0 mph SE12.9 kmh SE 10.0 mph16.1 kmh 29.33 in993.2 mb 0.00 in0.0 mm 0.00 in0.0 mm 0.00 in0.0 mm
01:10 AM 43.0°F6.1°C 38.8°F3.8°C 85% 5.0 mph S8.0 kmh S 10.0 mph16.1 kmh 29.33 in993.2 mb 0.00 in0.0 mm 0.00 in0.0 mm 0.00 in0.0 mm
01:15 AM 43.1°F6.2°C 38.6°F3.7°C 84% 9.0 mph SE14.5 kmh SE 12.0 mph19.3 kmh 29.33 in993.2 mb 0.00 in0.0 mm 0.00 in0.0 mm 0.00 in0.0 mm
01:20 AM 43.3°F6.3°C 38.8°F3.8°C 84% 11.0 mph SE17.7 kmh SE 16.0 mph25.7 kmh 29.33 in993.2 mb 0.00 in0.0 mm 0.00 in0.0 mm 0.00 in0.0 mm
01:25 AM 43.4°F6.3°C 38.6°F3.7°C 83% 11.0 mph SSE17.7 kmh SSE 16.0 mph25.7 kmh 29.33 in993.2 mb 0.00 in0.0 mm 0.00 in0.0 mm 0.00 in0.0 mm
01:30 AM 43.4°F6.3°C 38.6°F3.7°C 83% 8.0 mph SE12.9 kmh SE 16.0 mph25.7 kmh 29.33 in993.2 mb 0.00 in0.0 mm 0.00 in0.0 mm 0.00 in0.0 mm
01:35 AM 43.5°F6.4°C 38.7°F3.7°C 83% 6.0 mph SE9.7 kmh SE 13.0 mph20.9 kmh 29.33 in993.2 mb 0.00 in0.0 mm 0.00 in0.0 mm 0.00 in0.0 mm
01:40 AM 43.4°F6.3°C 38.6°F3.7°C 83% 7.0 mph SE11.3 kmh SE 15.0 mph24.1 kmh 29.33 in993.2 mb 0.00 in0.0 mm 0.00 in0.0 mm 0.00 in0.0 mm
01:45 AM 43.3°F6.3°C 38.5°F3.6°C 83% 7.0 mph SSE11.3 kmh SSE 15.0 mph24.1 kmh 29.33 in993.2 mb 0.00 in0.0 mm 0.00 in0.0 mm 0.00 in0.0 mm
01:50 AM 43.1°F6.2°C 38.6°F3.7°C 84% 6.0 mph SE9.7 kmh SE 12.0 mph19.3 kmh 29.32 in992.9 mb 0.00 in0.0 mm 0.00 in0.0 mm 0.00 in0.0 mm
01:55 AM 42.9°F6.1°C 38.4°F3.6°C 84% 5.0 mph SE8.0 kmh SE 14.0 mph22.5 kmh 29.33 in993.2 mb 0.00 in0.0 mm 0.00 in0.0 mm 0.00 in0.0 mm
02:00 AM 42.8°F6.0°C 38.3°F3.5°C 84% 5.0 mph SE8.0 kmh SE 14.0 mph22.5 kmh 29.32 in992.9 mb 0.00 in0.0 mm 0.00 in0.0 mm 0.00 in0.0 mm
02:05 AM 42.8°F6.0°C 38.3°F3.5°C 84% 8.0 mph SE12.9 kmh SE 14.0 mph22.5 kmh 29.32 in992.9 mb 0.00 in0.0 mm 0.00 in0.0 mm 0.00 in0.0 mm
02:10 AM 42.7°F5.9°C 38.2°F3.4°C 84% 9.0 mph SE14.5 kmh SE 14.0 mph22.5 kmh 29.32 in992.9 mb 0.00 in0.0 mm 0.00 in0.0 mm 0.00 in0.0 mm
02:15 AM 42.6°F5.9°C 38.1°F3.4°C 84% 7.0 mph SE11.3 kmh SE 18.0 mph29.0 kmh 29.32 in992.9 mb 0.00 in0.0 mm 0.00 in0.0 mm 0.00 in0.0 mm
02:20 AM 42.4°F5.8°C 37.9°F3.3°C 84% 10.0 mph SE16.1 kmh SE 12.0 mph19.3 kmh 29.32 in992.9 mb 0.00 in0.0 mm 0.00 in0.0 mm 0.00 in0.0 mm
02:25 AM 42.4°F5.8°C 37.9°F3.3°C 84% 5.0 mph SE8.0 kmh SE 13.0 mph20.9 kmh 29.32 in992.9 mb 0.00 in0.0 mm 0.00 in0.0 mm 0.00 in0.0 mm
02:30 AM 42.5°F5.8°C 37.7°F3.2°C 83% 7.0 mph SSE11.3 kmh SSE 13.0 mph20.9 kmh 29.33 in993.2 mb 0.00 in0.0 mm 0.00 in0.0 mm 0.00 in0.0 mm
02:35 AM 42.5°F5.8°C 37.7°F3.2°C 83% 6.0 mph SSE9.7 kmh SSE 9.0 mph14.5 kmh 29.33 in993.2 mb 0.00 in0.0 mm 0.00 in0.0 mm 0.00 in0.0 mm
02:40 AM 42.4°F5.8°C 37.6°F3.1°C 83% 4.0 mph SE6.4 kmh SE 11.0 mph17.7 kmh 29.33 in993.2 mb 0.00 in0.0 mm 0.00 in0.0 mm 0.00 in0.0 mm
02:45 AM 42.2°F5.7°C 37.4°F3.0°C 83% 3.0 mph SE4.8 kmh SE 11.0 mph17.7 kmh 29.33 in993.2 mb 0.00 in0.0 mm 0.00 in0.0 mm 0.00 in0.0 mm
02:50 AM 42.2°F5.7°C 37.7°F3.2°C 84% 1.0 mph ESE1.6 kmh ESE 8.0 mph12.9 kmh 29.33 in993.2 mb 0.00 in0.0 mm 0.00 in0.0 mm 0.00 in0.0 mm
02:55 AM 42.4°F5.8°C 37.3°F2.9°C 82% 5.0 mph SE8.0 kmh SE 8.0 mph12.9 kmh 29.33 in993.2 mb 0.00 in0.0 mm 0.00 in0.0 mm 0.00 in0.0 mm
03:00 AM 42.5°F5.8°C 37.4°F3.0°C 82% 2.0 mph SE3.2 kmh SE 8.0 mph12.9 kmh 29.33 in993.2 mb 0.00 in0.0 mm 0.00 in0.0 mm 0.00 in0.0 mm
03:05 AM 42.5°F5.8°C 37.4°F3.0°C 82% 7.0 mph ESE11.3 kmh ESE 7.0 mph11.3 kmh 29.34 in993.6 mb 0.00 in0.0 mm 0.00 in0.0 mm 0.00 in0.0 mm
03:10 AM 42.4°F5.8°C 37.3°F2.9°C 82% Calm Calm 11.0 mph17.7 kmh 29.34 in993.6 mb 0.00 in0.0 mm 0.00 in0.0 mm 0.00 in0.0 mm
03:15 AM 42.2°F5.7°C 37.4°F3.0°C 83% 8.0 mph ESE12.9 kmh ESE 11.0 mph17.7 kmh 29.34 in993.6 mb 0.00 in0.0 mm 0.00 in0.0 mm 0.00 in0.0 mm
03:20 AM 42.1°F5.6°C 37.3°F2.9°C 83% 2.0 mph SW3.2 kmh SW 9.0 mph14.5 kmh 29.34 in993.6 mb 0.00 in0.0 mm 0.00 in0.0 mm 0.00 in0.0 mm
03:25 AM 42.8°F6.0°C 36.1°F2.3°C 77% 5.0 mph S8.0 kmh S 9.0 mph14.5 kmh 29.34 in993.6 mb 0.00 in0.0 mm 0.00 in0.0 mm 0.00 in0.0 mm
03:30 AM 45.1°F7.3°C 34.8°F1.6°C 67% 8.0 mph SW12.9 kmh SW 12.0 mph19.3 kmh 29.34 in993.6 mb 0.00 in0.0 mm 0.00 in0.0 mm 0.00 in0.0 mm
03:35 AM 46.2°F7.9°C 34.3°F1.3°C 63% 3.0 mph S4.8 kmh S 9.0 mph14.5 kmh 29.34 in993.6 mb 0.00 in0.0 mm 0.00 in0.0 mm 0.00 in0.0 mm
03:40 AM 46.0°F7.8°C 34.5°F1.4°C 64% 4.0 mph SSW6.4 kmh SSW 9.0 mph14.5 kmh 29.34 in993.6 mb 0.00 in0.0 mm 0.00 in0.0 mm 0.00 in0.0 mm
03:45 AM 45.9°F7.7°C 34.4°F1.3°C 64% 5.0 mph SSW8.0 kmh SSW 9.0 mph14.5 kmh 29.34 in993.6 mb 0.00 in0.0 mm 0.00 in0.0 mm 0.00 in0.0 mm
03:50 AM 45.8°F7.7°C 34.3°F1.3°C 64% 3.0 mph SSW4.8 kmh SSW 6.0 mph9.7 kmh 29.34 in993.6 mb 0.00 in0.0 mm 0.00 in0.0 mm 0.00 in0.0 mm
03:55 AM 45.7°F7.6°C 34.2°F1.2°C 64% 5.0 mph SSW8.0 kmh SSW 9.0 mph14.5 kmh 29.34 in993.6 mb 0.00 in0.0 mm 0.00 in0.0 mm 0.00 in0.0 mm
04:00 AM 45.5°F7.5°C 34.1°F1.2°C 64% 9.0 mph S14.5 kmh S 12.0 mph19.3 kmh 29.35 in993.9 mb 0.00 in0.0 mm 0.00 in0.0 mm 0.00 in0.0 mm
04:05 AM 46.1°F7.8°C 33.8°F1.0°C 62% 4.0 mph S6.4 kmh S 11.0 mph17.7 kmh 29.35 in993.9 mb 0.00 in0.0 mm 0.00 in0.0 mm 0.00 in0.0 mm
04:10 AM 46.3°F7.9°C 33.2°F0.7°C 60% 3.0 mph S4.8 kmh S 11.0 mph17.7 kmh 29.35 in993.9 mb 0.00 in0.0 mm 0.00 in0.0 mm 0.00 in0.0 mm
04:15 AM 46.3°F7.9°C 33.6°F0.9°C 61% 2.0 mph SW3.2 kmh SW 16.0 mph25.7 kmh 29.35 in993.9 mb 0.00 in0.0 mm 0.00 in0.0 mm 0.00 in0.0 mm
04:20 AM 46.0°F7.8°C 32.5°F0.3°C 59% 4.0 mph WSW6.4 kmh WSW 9.0 mph14.5 kmh 29.35 in993.9 mb 0.00 in0.0 mm 0.00 in0.0 mm 0.00 in0.0 mm
04:25 AM 46.0°F7.8°C 32.9°F0.5°C 60% 2.0 mph SW3.2 kmh SW 9.0 mph14.5 kmh 29.35 in993.9 mb 0.00 in0.0 mm 0.00 in0.0 mm 0.00 in0.0 mm
04:30 AM 45.9°F7.7°C 32.8°F0.4°C 60% 4.0 mph SW6.4 kmh SW 9.0 mph14.5 kmh 29.35 in993.9 mb 0.00 in0.0 mm 0.00 in0.0 mm 0.00 in0.0 mm
04:35 AM 45.6°F7.6°C 32.9°F0.5°C 61% 5.0 mph SW8.0 kmh SW 10.0 mph16.1 kmh 29.36 in994.2 mb 0.00 in0.0 mm 0.00 in0.0 mm 0.00 in0.0 mm
04:40 AM 45.2°F7.3°C 33.8°F1.0°C 64% 11.0 mph SW17.7 kmh SW 15.0 mph24.1 kmh 29.36 in994.2 mb 0.00 in0.0 mm 0.00 in0.0 mm 0.00 in0.0 mm
04:45 AM 44.9°F7.2°C 33.9°F1.1°C 65% 4.0 mph WSW6.4 kmh WSW 15.0 mph24.1 kmh 29.35 in993.9 mb 0.00 in0.0 mm 0.00 in0.0 mm 0.00 in0.0 mm
04:50 AM 44.5°F6.9°C 33.9°F1.1°C 66% 3.0 mph S4.8 kmh S 7.0 mph11.3 kmh 29.35 in993.9 mb 0.00 in0.0 mm 0.00 in0.0 mm 0.00 in0.0 mm
04:55 AM 44.4°F6.9°C 33.8°F1.0°C 66% 4.0 mph SW6.4 kmh SW 10.0 mph16.1 kmh 29.36 in994.2 mb 0.00 in0.0 mm 0.00 in0.0 mm 0.00 in0.0 mm
05:00 AM 44.1°F6.7°C 33.9°F1.1°C 67% 2.0 mph SW3.2 kmh SW 10.0 mph16.1 kmh 29.36 in994.2 mb 0.00 in0.0 mm 0.00 in0.0 mm 0.00 in0.0 mm
05:05 AM 44.0°F6.7°C 33.8°F1.0°C 67% Calm Calm 7.0 mph11.3 kmh 29.36 in994.2 mb 0.00 in0.0 mm 0.00 in0.0 mm 0.00 in0.0 mm
05:10 AM 43.9°F6.6°C 33.7°F0.9°C 67% Calm Calm 7.0 mph11.3 kmh 29.36 in994.2 mb 0.00 in0.0 mm 0.00 in0.0 mm 0.00 in0.0 mm
05:15 AM 43.8°F6.6°C 33.9°F1.1°C 68% Calm Calm 7.0 mph11.3 kmh 29.36 in994.2 mb 0.00 in0.0 mm 0.00 in0.0 mm 0.00 in0.0 mm
05:20 AM 43.5°F6.4°C 33.7°F0.9°C 68% Calm Calm 2.0 mph3.2 kmh 29.36 in994.2 mb 0.00 in0.0 mm 0.00 in0.0 mm 0.00 in0.0 mm
05:25 AM 43.0°F6.1°C 33.9°F1.1°C 70% Calm Calm 2.0 mph3.2 kmh 29.37 in994.6 mb 0.00 in0.0 mm 0.00 in0.0 mm 0.00 in0.0 mm
05:30 AM 42.7°F5.9°C 34.0°F1.1°C 71% 5.0 mph E8.0 kmh E 5.0 mph8.0 kmh 29.37 in994.6 mb 0.00 in0.0 mm 0.00 in0.0 mm 0.00 in0.0 mm
05:35 AM 42.8°F6.0°C 34.1°F1.2°C 71% 4.0 mph SE6.4 kmh SE 7.0 mph11.3 kmh 29.37 in994.6 mb 0.00 in0.0 mm 0.00 in0.0 mm 0.00 in0.0 mm
05:40 AM 43.3°F6.3°C 33.8°F1.0°C 69% Calm Calm 7.0 mph11.3 kmh 29.37 in994.6 mb 0.00 in0.0 mm 0.00 in0.0 mm 0.00 in0.0 mm
05:45 AM 43.3°F6.3°C 33.8°F1.0°C 69% 3.0 mph SSE4.8 kmh SSE 7.0 mph11.3 kmh 29.36 in994.2 mb 0.00 in0.0 mm 0.00 in0.0 mm 0.00 in0.0 mm
05:50 AM 43.4°F6.3°C 33.6°F0.9°C 68% Calm Calm 3.0 mph4.8 kmh 29.36 in994.2 mb 0.00 in0.0 mm 0.00 in0.0 mm 0.00 in0.0 mm
05:55 AM 43.3°F6.3°C 33.5°F0.8°C 68% Calm Calm 3.0 mph4.8 kmh 29.36 in994.2 mb 0.00 in0.0 mm 0.00 in0.0 mm 0.00 in0.0 mm
06:00 AM 42.9°F6.1°C 34.2°F1.2°C 71% Calm Calm 3.0 mph4.8 kmh 29.36 in994.2 mb 0.00 in0.0 mm 0.00 in0.0 mm 0.00 in0.0 mm
06:05 AM 42.1°F5.6°C 33.7°F0.9°C 72% Calm Calm -- 29.36 in994.2 mb 0.00 in0.0 mm 0.00 in0.0 mm 0.00 in0.0 mm
06:10 AM 41.6°F5.3°C 33.9°F1.1°C 74% 1.0 mph NW1.6 kmh NW 1.0 mph1.6 kmh 29.36 in994.2 mb 0.00 in0.0 mm 0.00 in0.0 mm 0.00 in0.0 mm
06:15 AM 41.5°F5.3°C 33.8°F1.0°C 74% Calm Calm 1.0 mph1.6 kmh 29.36 in994.2 mb 0.00 in0.0 mm 0.00 in0.0 mm 0.00 in0.0 mm
06:20 AM 41.3°F5.2°C 34.0°F1.1°C 75% Calm Calm -- 29.36 in994.2 mb 0.00 in0.0 mm 0.00 in0.0 mm 0.00 in0.0 mm
06:25 AM 41.1°F5.1°C 34.1°F1.2°C 76% Calm Calm -- 29.36 in994.2 mb 0.00 in0.0 mm 0.00 in0.0 mm 0.00 in0.0 mm
06:30 AM 41.1°F5.1°C 34.1°F1.2°C 76% Calm Calm -- 29.36 in994.2 mb 0.00 in0.0 mm 0.00 in0.0 mm 0.00 in0.0 mm
06:35 AM 41.1°F5.1°C 34.1°F1.2°C 76% Calm Calm -- 29.36 in994.2 mb 0.00 in0.0 mm 0.00 in0.0 mm 0.00 in0.0 mm
06:40 AM 40.9°F4.9°C 34.3°F1.3°C 77% Calm Calm -- 29.36 in994.2 mb 0.00 in0.0 mm 0.00 in0.0 mm 0.00 in0.0 mm
06:45 AM 40.8°F4.9°C 34.2°F1.2°C 77% 1.0 mph NW1.6 kmh NW 2.0 mph3.2 kmh 29.36 in994.2 mb 0.00 in0.0 mm 0.00 in0.0 mm 0.00 in0.0 mm
06:50 AM 40.4°F4.7°C 33.8°F1.0°C 77% Calm Calm 1.0 mph1.6 kmh 29.36 in994.2 mb 0.00 in0.0 mm 0.00 in0.0 mm 0.00 in0.0 mm
06:55 AM 40.1°F4.5°C 34.1°F1.2°C 79% 4.0 mph NNE6.4 kmh NNE 4.0 mph6.4 kmh 29.36 in994.2 mb 0.00 in0.0 mm 0.00 in0.0 mm 0.00 in0.0 mm
07:00 AM 40.3°F4.6°C 34.3°F1.3°C 79% 4.0 mph NE6.4 kmh NE 5.0 mph8.0 kmh 29.36 in994.2 mb 0.00 in0.0 mm 0.00 in0.0 mm 0.00 in0.0 mm
07:05 AM 40.6°F4.8°C 34.6°F1.4°C 79% 3.0 mph ENE4.8 kmh ENE 6.0 mph9.7 kmh 29.36 in994.2 mb 0.00 in0.0 mm 0.00 in0.0 mm 0.00 in0.0 mm
07:10 AM 41.0°F5.0°C 34.7°F1.5°C 78% 5.0 mph ENE8.0 kmh ENE 8.0 mph12.9 kmh 29.36 in994.2 mb 0.00 in0.0 mm 0.00 in0.0 mm 0.00 in0.0 mm
07:15 AM 41.2°F5.1°C 34.9°F1.6°C 78% 2.0 mph ENE3.2 kmh ENE 10.0 mph16.1 kmh 29.35 in993.9 mb 0.00 in0.0 mm 0.00 in0.0 mm 0.00 in0.0 mm
07:20 AM 41.4°F5.2°C 35.1°F1.7°C 78% 5.0 mph ENE8.0 kmh ENE 6.0 mph9.7 kmh 29.35 in993.9 mb 0.00 in0.0 mm 0.00 in0.0 mm 0.00 in0.0 mm
07:25 AM 41.1°F5.1°C 34.8°F1.6°C 78% 3.0 mph ENE4.8 kmh ENE 6.0 mph9.7 kmh 29.35 in993.9 mb 0.00 in0.0 mm 0.00 in0.0 mm 0.00 in0.0 mm
07:30 AM 40.8°F4.9°C 34.8°F1.6°C 79% 3.0 mph ENE4.8 kmh ENE 6.0 mph9.7 kmh 29.35 in993.9 mb 0.00 in0.0 mm 0.00 in0.0 mm 0.00 in0.0 mm
07:35 AM 40.7°F4.8°C 35.0°F1.7°C 80% 5.0 mph NE8.0 kmh NE 6.0 mph9.7 kmh 29.35 in993.9 mb 0.00 in0.0 mm 0.00 in0.0 mm 0.00 in0.0 mm
07:40 AM 40.5°F4.7°C 35.1°F1.7°C 81% 5.0 mph ENE8.0 kmh ENE 8.0 mph12.9 kmh 29.35 in993.9 mb 0.00 in0.0 mm 0.00 in0.0 mm 0.00 in0.0 mm
07:45 AM 40.4°F4.7°C 35.0°F1.7°C 81% 3.0 mph E4.8 kmh E 8.0 mph12.9 kmh 29.35 in993.9 mb 0.00 in0.0 mm 0.00 in0.0 mm 0.00 in0.0 mm
07:50 AM 40.4°F4.7°C 35.0°F1.7°C 81% 3.0 mph E4.8 kmh E 7.0 mph11.3 kmh 29.35 in993.9 mb 0.00 in0.0 mm 0.00 in0.0 mm 0.00 in0.0 mm
07:55 AM 40.3°F4.6°C 35.3°F1.8°C 82% 3.0 mph E4.8 kmh E 7.0 mph11.3 kmh 29.34 in993.6 mb 0.00 in0.0 mm 0.00 in0.0 mm 0.00 in0.0 mm
08:00 AM 40.1°F4.5°C 35.1°F1.7°C 82% 3.0 mph E4.8 kmh E 7.0 mph11.3 kmh 29.34 in993.6 mb 0.00 in0.0 mm 0.00 in0.0 mm 0.00 in0.0 mm
08:05 AM 39.9°F4.4°C 34.9°F1.6°C 82% 6.0 mph E9.7 kmh E 9.0 mph14.5 kmh 29.34 in993.6 mb 0.00 in0.0 mm 0.00 in0.0 mm 0.00 in0.0 mm
08:10 AM 40.0°F4.4°C 35.0°F1.7°C 82% 5.0 mph E8.0 kmh E 10.0 mph16.1 kmh 29.35 in993.9 mb 0.00 in0.0 mm 0.00 in0.0 mm 0.00 in0.0 mm
08:15 AM 40.1°F4.5°C 35.1°F1.7°C 82% 10.0 mph E16.1 kmh E 11.0 mph17.7 kmh 29.34 in993.6 mb 0.00 in0.0 mm 0.00 in0.0 mm 0.00 in0.0 mm
08:20 AM 40.1°F4.5°C 35.1°F1.7°C 82% 7.0 mph SE11.3 kmh SE 14.0 mph22.5 kmh 29.33 in993.2 mb 0.00 in0.0 mm 0.00 in0.0 mm 0.00 in0.0 mm
08:25 AM 40.1°F4.5°C 35.1°F1.7°C 82% 7.0 mph ESE11.3 kmh ESE 14.0 mph22.5 kmh 29.34 in993.6 mb 0.00 in0.0 mm 0.00 in0.0 mm 0.00 in0.0 mm
08:30 AM 40.0°F4.4°C 35.0°F1.7°C 82% 4.0 mph E6.4 kmh E 14.0 mph22.5 kmh 29.34 in993.6 mb 0.00 in0.0 mm 0.00 in0.0 mm 0.00 in0.0 mm
08:35 AM 40.0°F4.4°C 35.0°F1.7°C 82% 8.0 mph E12.9 kmh E 12.0 mph19.3 kmh 29.34 in993.6 mb 0.00 in0.0 mm 0.00 in0.0 mm 0.00 in0.0 mm
08:40 AM 40.1°F4.5°C 35.1°F1.7°C 82% 8.0 mph E12.9 kmh E 13.0 mph20.9 kmh 29.33 in993.2 mb 0.00 in0.0 mm 0.00 in0.0 mm 0.00 in0.0 mm
08:45 AM 40.2°F4.6°C 35.2°F1.8°C 82% 5.0 mph SE8.0 kmh SE 13.0 mph20.9 kmh 29.33 in993.2 mb 0.00 in0.0 mm 0.00 in0.0 mm 0.00 in0.0 mm
08:50 AM 40.4°F4.7°C 35.4°F1.9°C 82% 10.0 mph E16.1 kmh E 11.0 mph17.7 kmh 29.34 in993.6 mb 0.00 in0.0 mm 0.00 in0.0 mm 0.00 in0.0 mm
08:55 AM 40.5°F4.7°C 35.1°F1.7°C 81% 9.0 mph E14.5 kmh E 11.0 mph17.7 kmh 29.34 in993.6 mb 0.00 in0.0 mm 0.00 in0.0 mm 0.00 in0.0 mm
09:00 AM 40.7°F4.8°C 35.3°F1.8°C 81% 5.0 mph ESE8.0 kmh ESE 11.0 mph17.7 kmh 29.33 in993.2 mb 0.00 in0.0 mm 0.00 in0.0 mm 0.00 in0.0 mm
09:05 AM 40.9°F4.9°C 35.5°F1.9°C 81% 4.0 mph SE6.4 kmh SE 10.0 mph16.1 kmh 29.34 in993.6 mb 0.00 in0.0 mm 0.00 in0.0 mm 0.00 in0.0 mm
09:10 AM 40.9°F4.9°C 35.5°F1.9°C 81% 4.0 mph ESE6.4 kmh ESE 10.0 mph16.1 kmh 29.34 in993.6 mb 0.00 in0.0 mm 0.00 in0.0 mm 0.00 in0.0 mm
09:15 AM 41.0°F5.0°C 35.6°F2.0°C 81% 6.0 mph E9.7 kmh E 11.0 mph17.7 kmh 29.34 in993.6 mb 0.00 in0.0 mm 0.00 in0.0 mm 0.00 in0.0 mm
09:20 AM 41.1°F5.1°C 35.7°F2.1°C 81% 7.0 mph SE11.3 kmh SE 12.0 mph19.3 kmh 29.34 in993.6 mb 0.00 in0.0 mm 0.00 in0.0 mm 0.00 in0.0 mm
09:25 AM 41.3°F5.2°C 35.9°F2.2°C 81% 2.0 mph ESE3.2 kmh ESE 14.0 mph22.5 kmh 29.34 in993.6 mb 0.00 in0.0 mm 0.00 in0.0 mm 0.00 in0.0 mm
09:30 AM 41.3°F5.2°C 35.9°F2.2°C 81% 7.0 mph E11.3 kmh E 14.0 mph22.5 kmh 29.34 in993.6 mb 0.00 in0.0 mm 0.00 in0.0 mm 0.00 in0.0 mm
09:35 AM 41.4°F5.2°C 36.0°F2.2°C 81% 6.0 mph ESE9.7 kmh ESE 13.0 mph20.9 kmh 29.34 in993.6 mb 0.00 in0.0 mm 0.00 in0.0 mm 0.00 in0.0 mm
09:40 AM 41.5°F5.3°C 35.8°F2.1°C 80% 8.0 mph ESE12.9 kmh ESE 13.0 mph20.9 kmh 29.34 in993.6 mb 0.00 in0.0 mm 0.00 in0.0 mm 0.00 in0.0 mm
09:45 AM 41.7°F5.4°C 36.0°F2.2°C 80% 6.0 mph ESE9.7 kmh ESE 13.0 mph20.9 kmh 29.34 in993.6 mb 0.00 in0.0 mm 0.00 in0.0 mm 0.00 in0.0 mm
09:50 AM 42.0°F5.6°C 36.0°F2.2°C 79% 4.0 mph SE6.4 kmh SE 10.0 mph16.1 kmh 29.35 in993.9 mb 0.00 in0.0 mm 0.00 in0.0 mm 0.00 in0.0 mm
09:55 AM 42.2°F5.7°C 36.2°F2.3°C 79% 1.0 mph SE1.6 kmh SE 10.0 mph16.1 kmh 29.34 in993.6 mb 0.00 in0.0 mm 0.00 in0.0 mm 0.00 in0.0 mm
10:00 AM 42.2°F5.7°C 36.2°F2.3°C 79% 3.0 mph SSE4.8 kmh SSE 10.0 mph16.1 kmh 29.34 in993.6 mb 0.00 in0.0 mm 0.00 in0.0 mm 0.00 in0.0 mm
10:05 AM 42.2°F5.7°C 35.8°F2.1°C 78% 4.0 mph SE6.4 kmh SE 9.0 mph14.5 kmh 29.35 in993.9 mb 0.00 in0.0 mm 0.00 in0.0 mm 0.00 in0.0 mm
10:10 AM 42.3°F5.7°C 35.6°F2.0°C 77% 4.0 mph SE6.4 kmh SE 10.0 mph16.1 kmh 29.34 in993.6 mb 0.00 in0.0 mm 0.00 in0.0 mm 0.00 in0.0 mm
10:15 AM 42.4°F5.8°C 35.7°F2.1°C 77% 3.0 mph SE4.8 kmh SE 10.0 mph16.1 kmh 29.34 in993.6 mb 0.00 in0.0 mm 0.00 in0.0 mm 0.00 in0.0 mm
10:20 AM 42.5°F5.8°C 35.5°F1.9°C 76% 3.0 mph SE4.8 kmh SE 8.0 mph12.9 kmh 29.34 in993.6 mb 0.00 in0.0 mm 0.00 in0.0 mm 0.00 in0.0 mm
10:25 AM 42.5°F5.8°C 35.5°F1.9°C 76% 8.0 mph ESE12.9 kmh ESE 10.0 mph16.1 kmh 29.34 in993.6 mb 0.00 in0.0 mm 0.00 in0.0 mm 0.00 in0.0 mm
10:30 AM 42.5°F5.8°C 35.5°F1.9°C 76% 10.0 mph ESE16.1 kmh ESE 11.0 mph17.7 kmh 29.33 in993.2 mb 0.00 in0.0 mm 0.00 in0.0 mm 0.00 in0.0 mm
10:35 AM 42.6°F5.9°C 35.6°F2.0°C 76% 9.0 mph SE14.5 kmh SE 13.0 mph20.9 kmh 29.33 in993.2 mb 0.00 in0.0 mm 0.00 in0.0 mm 0.00 in0.0 mm
10:40 AM 42.7°F5.9°C 35.7°F2.1°C 76% 6.0 mph SE9.7 kmh SE 13.0 mph20.9 kmh 29.33 in993.2 mb 0.00 in0.0 mm 0.00 in0.0 mm 0.00 in0.0 mm
10:45 AM 42.9°F6.1°C 35.9°F2.2°C 76% 7.0 mph SE11.3 kmh SE 13.0 mph20.9 kmh 29.34 in993.6 mb 0.00 in0.0 mm 0.00 in0.0 mm 0.00 in0.0 mm
10:50 AM 43.1°F6.2°C 35.7°F2.1°C 75% 6.0 mph SE9.7 kmh SE 15.0 mph24.1 kmh 29.34 in993.6 mb 0.00 in0.0 mm 0.00 in0.0 mm 0.00 in0.0 mm
10:55 AM 43.3°F6.3°C 35.6°F2.0°C 74% 10.0 mph SE16.1 kmh SE 16.0 mph25.7 kmh 29.33 in993.2 mb 0.00 in0.0 mm 0.00 in0.0 mm 0.00 in0.0 mm
11:00 AM 43.5°F6.4°C 35.8°F2.1°C 74% 4.0 mph ESE6.4 kmh ESE 16.0 mph25.7 kmh 29.33 in993.2 mb 0.00 in0.0 mm 0.00 in0.0 mm 0.00 in0.0 mm
11:05 AM 43.5°F6.4°C 35.4°F1.9°C 73% 6.0 mph SE9.7 kmh SE 17.0 mph27.4 kmh 29.33 in993.2 mb 0.00 in0.0 mm 0.00 in0.0 mm 0.00 in0.0 mm
11:10 AM 43.6°F6.4°C 35.9°F2.2°C 74% 3.0 mph SE4.8 kmh SE 17.0 mph27.4 kmh 29.33 in993.2 mb 0.00 in0.0 mm 0.00 in0.0 mm 0.00 in0.0 mm
11:15 AM 43.6°F6.4°C 36.2°F2.3°C 75% 5.0 mph SE8.0 kmh SE 17.0 mph27.4 kmh 29.33 in993.2 mb 0.00 in0.0 mm 0.00 in0.0 mm 0.00 in0.0 mm
11:20 AM 43.7°F6.5°C 36.3°F2.4°C 75% 8.0 mph ESE12.9 kmh ESE 12.0 mph19.3 kmh 29.33 in993.2 mb 0.00 in0.0 mm 0.00 in0.0 mm 0.00 in0.0 mm
11:25 AM 43.8°F6.6°C 36.1°F2.3°C 74% 5.0 mph SSE8.0 kmh SSE 13.0 mph20.9 kmh 29.34 in993.6 mb 0.00 in0.0 mm 0.00 in0.0 mm 0.00 in0.0 mm
11:30 AM 44.1°F6.7°C 35.7°F2.1°C 72% 3.0 mph SSE4.8 kmh SSE 13.0 mph20.9 kmh 29.34 in993.6 mb 0.00 in0.0 mm 0.00 in0.0 mm 0.00 in0.0 mm
11:35 AM 44.6°F7.0°C 34.7°F1.5°C 68% 8.0 mph SSE12.9 kmh SSE 16.0 mph25.7 kmh 29.34 in993.6 mb 0.00 in0.0 mm 0.00 in0.0 mm 0.00 in0.0 mm
11:40 AM 44.9°F7.2°C 35.0°F1.7°C 68% 10.0 mph SE16.1 kmh SE 16.0 mph25.7 kmh 29.34 in993.6 mb 0.00 in0.0 mm 0.00 in0.0 mm 0.00 in0.0 mm
11:45 AM 45.0°F7.2°C 35.1°F1.7°C 68% 8.0 mph SE12.9 kmh SE 16.0 mph25.7 kmh 29.33 in993.2 mb 0.00 in0.0 mm 0.00 in0.0 mm 0.00 in0.0 mm
11:50 AM 45.0°F7.2°C 35.1°F1.7°C 68% 3.0 mph SE4.8 kmh SE 13.0 mph20.9 kmh 29.34 in993.6 mb 0.00 in0.0 mm 0.00 in0.0 mm 0.00 in0.0 mm
11:55 AM 44.8°F7.1°C 35.6°F2.0°C 70% 13.0 mph SE20.9 kmh SE 20.0 mph32.2 kmh 29.34 in993.6 mb 0.00 in0.0 mm 0.00 in0.0 mm 0.00 in0.0 mm
12:00 PM 43.9°F6.6°C 35.8°F2.1°C 73% 10.0 mph SE16.1 kmh SE 20.0 mph32.2 kmh 29.34 in993.6 mb 0.00 in0.0 mm 0.00 in0.0 mm 0.00 in0.0 mm
12:05 PM 43.2°F6.2°C 36.2°F2.3°C 76% 8.0 mph SSE12.9 kmh SSE 15.0 mph24.1 kmh 29.33 in993.2 mb 0.00 in0.0 mm 0.00 in0.0 mm 0.00 in0.0 mm
12:10 PM 42.9°F6.1°C 36.5°F2.5°C 78% 14.0 mph ESE22.5 kmh ESE 15.0 mph24.1 kmh 29.33 in993.2 mb 0.00 in0.0 mm 0.00 in0.0 mm 0.00 in0.0 mm
12:15 PM 42.9°F6.1°C 36.9°F2.7°C 79% 10.0 mph E16.1 kmh E 15.0 mph24.1 kmh 29.33 in993.2 mb 0.00 in0.0 mm 0.00 in0.0 mm 0.00 in0.0 mm
12:20 PM 42.9°F6.1°C 36.5°F2.5°C 78% 6.0 mph ESE9.7 kmh ESE 14.0 mph22.5 kmh 29.32 in992.9 mb 0.00 in0.0 mm 0.00 in0.0 mm 0.00 in0.0 mm
12:25 PM 43.2°F6.2°C 36.8°F2.7°C 78% 7.0 mph ESE11.3 kmh ESE 14.0 mph22.5 kmh 29.31 in992.6 mb 0.00 in0.0 mm 0.00 in0.0 mm 0.00 in0.0 mm
12:30 PM 43.5°F6.4°C 36.8°F2.7°C 77% 9.0 mph SE14.5 kmh SE 14.0 mph22.5 kmh 29.31 in992.6 mb 0.00 in0.0 mm 0.00 in0.0 mm 0.00 in0.0 mm
12:35 PM 44.1°F6.7°C 37.0°F2.8°C 76% 6.0 mph ESE9.7 kmh ESE 12.0 mph19.3 kmh 29.30 in992.2 mb 0.00 in0.0 mm 0.00 in0.0 mm 0.00 in0.0 mm
12:40 PM 44.6°F7.0°C 36.5°F2.5°C 73% 5.0 mph E8.0 kmh E 16.0 mph25.7 kmh 29.29 in991.9 mb 0.00 in0.0 mm 0.00 in0.0 mm 0.00 in0.0 mm
12:45 PM 44.9°F7.2°C 36.4°F2.4°C 72% 11.0 mph E17.7 kmh E 16.0 mph25.7 kmh 29.29 in991.9 mb 0.00 in0.0 mm 0.00 in0.0 mm 0.00 in0.0 mm
12:50 PM 45.4°F7.4°C 36.2°F2.3°C 70% 5.0 mph SE8.0 kmh SE 22.0 mph35.4 kmh 29.28 in991.5 mb 0.00 in0.0 mm 0.00 in0.0 mm 0.00 in0.0 mm
12:55 PM 45.6°F7.6°C 36.0°F2.2°C 69% 6.0 mph ESE9.7 kmh ESE 22.0 mph35.4 kmh 29.27 in991.2 mb 0.00 in0.0 mm 0.00 in0.0 mm 0.00 in0.0 mm
01:00 PM 46.1°F7.8°C 36.1°F2.3°C 68% 6.0 mph SE9.7 kmh SE 22.0 mph35.4 kmh 29.27 in991.2 mb 0.00 in0.0 mm 0.00 in0.0 mm 0.00 in0.0 mm
01:05 PM 46.4°F8.0°C 35.7°F2.1°C 66% 7.0 mph E11.3 kmh E 22.0 mph35.4 kmh 29.27 in991.2 mb 0.00 in0.0 mm 0.00 in0.0 mm 0.00 in0.0 mm
01:10 PM 46.5°F8.1°C 36.2°F2.3°C 67% 8.0 mph E12.9 kmh E 22.0 mph35.4 kmh 29.26 in990.9 mb 0.00 in0.0 mm 0.00 in0.0 mm 0.00 in0.0 mm
01:15 PM 46.6°F8.1°C 36.2°F2.3°C 67% 19.0 mph SE30.6 kmh SE 22.0 mph35.4 kmh 29.26 in990.9 mb 0.00 in0.0 mm 0.00 in0.0 mm 0.00 in0.0 mm
01:20 PM 46.6°F8.1°C 35.5°F1.9°C 65% 7.0 mph ESE11.3 kmh ESE 16.0 mph25.7 kmh 29.25 in990.5 mb 0.00 in0.0 mm 0.00 in0.0 mm 0.00 in0.0 mm
01:25 PM 46.9°F8.3°C 35.8°F2.1°C 65% 6.0 mph ESE9.7 kmh ESE 17.0 mph27.4 kmh 29.25 in990.5 mb 0.00 in0.0 mm 0.00 in0.0 mm 0.00 in0.0 mm
01:30 PM 47.0°F8.3°C 35.9°F2.2°C 65% 9.0 mph SE14.5 kmh SE 17.0 mph27.4 kmh 29.25 in990.5 mb 0.00 in0.0 mm 0.00 in0.0 mm 0.00 in0.0 mm
01:35 PM 47.1°F8.4°C 36.0°F2.2°C 65% 8.0 mph ESE12.9 kmh ESE 15.0 mph24.1 kmh 29.25 in990.5 mb 0.00 in0.0 mm 0.00 in0.0 mm 0.00 in0.0 mm
01:40 PM 47.2°F8.4°C 36.1°F2.3°C 65% 4.0 mph ESE6.4 kmh ESE 19.0 mph30.6 kmh 29.25 in990.5 mb 0.00 in0.0 mm 0.00 in0.0 mm 0.00 in0.0 mm
01:45 PM 47.3°F8.5°C 35.8°F2.1°C 64% 10.0 mph E16.1 kmh E 19.0 mph30.6 kmh 29.25 in990.5 mb 0.00 in0.0 mm 0.00 in0.0 mm 0.00 in0.0 mm
01:50 PM 47.3°F8.5°C 35.8°F2.1°C 64% 5.0 mph ESE8.0 kmh ESE 13.0 mph20.9 kmh 29.24 in990.2 mb 0.00 in0.0 mm 0.00 in0.0 mm 0.00 in0.0 mm
01:55 PM 47.3°F8.5°C 36.2°F2.3°C 65% 8.0 mph SE12.9 kmh SE 13.0 mph20.9 kmh 29.24 in990.2 mb 0.00 in0.0 mm 0.00 in0.0 mm 0.00 in0.0 mm
02:00 PM 47.2°F8.4°C 35.7°F2.1°C 64% 7.0 mph ESE11.3 kmh ESE 13.0 mph20.9 kmh 29.24 in990.2 mb 0.00 in0.0 mm 0.00 in0.0 mm 0.00 in0.0 mm
02:05 PM 47.1°F8.4°C 36.0°F2.2°C 65% 6.0 mph SE9.7 kmh SE 8.0 mph12.9 kmh 29.24 in990.2 mb 0.00 in0.0 mm 0.00 in0.0 mm 0.00 in0.0 mm
02:10 PM 47.1°F8.4°C 36.0°F2.2°C 65% 2.0 mph SE3.2 kmh SE 10.0 mph16.1 kmh 29.23 in989.8 mb 0.00 in0.0 mm 0.00 in0.0 mm 0.00 in0.0 mm
02:15 PM 47.1°F8.4°C 36.0°F2.2°C 65% 3.0 mph SE4.8 kmh SE 10.0 mph16.1 kmh 29.24 in990.2 mb 0.00 in0.0 mm 0.00 in0.0 mm 0.00 in0.0 mm
02:20 PM 47.1°F8.4°C 36.0°F2.2°C 65% 3.0 mph S4.8 kmh S 8.0 mph12.9 kmh 29.25 in990.5 mb 0.00 in0.0 mm 0.00 in0.0 mm 0.00 in0.0 mm
02:25 PM 47.0°F8.3°C 35.9°F2.2°C 65% 1.0 mph SSE1.6 kmh SSE 8.0 mph12.9 kmh 29.25 in990.5 mb 0.00 in0.0 mm 0.00 in0.0 mm 0.00 in0.0 mm
02:30 PM 47.0°F8.3°C 35.9°F2.2°C 65% 7.0 mph S11.3 kmh S 11.0 mph17.7 kmh 29.26 in990.9 mb 0.00 in0.0 mm 0.00 in0.0 mm 0.00 in0.0 mm
02:35 PM 46.9°F8.3°C 37.3°F2.9°C 69% 16.0 mph SSW25.7 kmh SSW 20.0 mph32.2 kmh 29.26 in990.9 mb 0.00 in0.0 mm 0.00 in0.0 mm 0.00 in0.0 mm
02:40 PM 45.4°F7.4°C 36.9°F2.7°C 72% 5.0 mph SSW8.0 kmh SSW 20.0 mph32.2 kmh 29.27 in991.2 mb 0.02 in0.5 mm 0.24 in6.1 mm 0.02 in0.5 mm
02:45 PM 44.4°F6.9°C 37.7°F3.2°C 77% 12.0 mph S19.3 kmh S 20.0 mph32.2 kmh 29.28 in991.5 mb 0.03 in0.8 mm 0.12 in3.0 mm 0.03 in0.8 mm
02:50 PM 43.7°F6.5°C 38.0°F3.3°C 80% 5.0 mph SSE8.0 kmh SSE 15.0 mph24.1 kmh 29.26 in990.9 mb 0.04 in1.0 mm 0.12 in3.0 mm 0.04 in1.0 mm
02:55 PM 43.1°F6.2°C 38.0°F3.3°C 82% 6.0 mph ESE9.7 kmh ESE 15.0 mph24.1 kmh 29.26 in990.9 mb 0.04 in1.0 mm 0.00 in0.0 mm 0.04 in1.0 mm
03:00 PM 42.5°F5.8°C 37.7°F3.2°C 83% 7.0 mph SE11.3 kmh SE 15.0 mph24.1 kmh 29.25 in990.5 mb 0.04 in1.0 mm 0.00 in0.0 mm 0.04 in1.0 mm
03:05 PM 42.1°F5.6°C 37.9°F3.3°C 85% 5.0 mph E8.0 kmh E 11.0 mph17.7 kmh 29.25 in990.5 mb 0.04 in1.0 mm 0.00 in0.0 mm 0.04 in1.0 mm
03:10 PM 42.1°F5.6°C 38.2°F3.4°C 86% 10.0 mph ESE16.1 kmh ESE 13.0 mph20.9 kmh 29.24 in990.2 mb 0.04 in1.0 mm 0.00 in0.0 mm 0.04 in1.0 mm
03:15 PM 42.1°F5.6°C 38.2°F3.4°C 86% 4.0 mph E6.4 kmh E 14.0 mph22.5 kmh 29.23 in989.8 mb 0.04 in1.0 mm 0.00 in0.0 mm 0.04 in1.0 mm
03:20 PM 42.6°F5.9°C 39.0°F3.9°C 87% 6.0 mph ESE9.7 kmh ESE 15.0 mph24.1 kmh 29.23 in989.8 mb 0.04 in1.0 mm 0.00 in0.0 mm 0.04 in1.0 mm
03:25 PM 43.6°F6.4°C 40.0°F4.4°C 87% 9.0 mph E14.5 kmh E 15.0 mph24.1 kmh 29.23 in989.8 mb 0.04 in1.0 mm 0.00 in0.0 mm 0.04 in1.0 mm
03:30 PM 43.6°F6.4°C 39.7°F4.3°C 86% 9.0 mph E14.5 kmh E 15.0 mph24.1 kmh 29.23 in989.8 mb 0.04 in1.0 mm 0.00 in0.0 mm 0.04 in1.0 mm
03:35 PM 43.6°F6.4°C 39.7°F4.3°C 86% 3.0 mph SE4.8 kmh SE 12.0 mph19.3 kmh 29.23 in989.8 mb 0.04 in1.0 mm 0.00 in0.0 mm 0.04 in1.0 mm
03:40 PM 43.9°F6.6°C 40.0°F4.4°C 86% 3.0 mph ESE4.8 kmh ESE 12.0 mph19.3 kmh 29.23 in989.8 mb 0.04 in1.0 mm 0.00 in0.0 mm 0.04 in1.0 mm
03:45 PM 44.1°F6.7°C 39.9°F4.4°C 85% 3.0 mph ESE4.8 kmh ESE 12.0 mph19.3 kmh 29.23 in989.8 mb 0.04 in1.0 mm 0.00 in0.0 mm 0.04 in1.0 mm
03:50 PM 45.0°F7.2°C 40.8°F4.9°C 85% 7.0 mph ESE11.3 kmh ESE 13.0 mph20.9 kmh 29.23 in989.8 mb 0.01 in0.3 mm 0.00 in0.0 mm 0.04 in1.0 mm
03:55 PM 45.7°F7.6°C 40.5°F4.7°C 82% 8.0 mph E12.9 kmh E 14.0 mph22.5 kmh 29.23 in989.8 mb 0.01 in0.3 mm 0.00 in0.0 mm 0.04 in1.0 mm
04:00 PM 45.7°F7.6°C 40.2°F4.6°C 81% 9.0 mph E14.5 kmh E 14.0 mph22.5 kmh 29.23 in989.8 mb 0.01 in0.3 mm 0.00 in0.0 mm 0.04 in1.0 mm
04:05 PM 46.0°F7.8°C 40.5°F4.7°C 81% 8.0 mph SE12.9 kmh SE 12.0 mph19.3 kmh 29.23 in989.8 mb 0.00 in0.0 mm 0.00 in0.0 mm 0.04 in1.0 mm
04:10 PM 46.3°F7.9°C 40.5°F4.7°C 80% 6.0 mph ESE9.7 kmh ESE 13.0 mph20.9 kmh 29.23 in989.8 mb 0.00 in0.0 mm 0.00 in0.0 mm 0.04 in1.0 mm
04:15 PM 46.5°F8.1°C 40.7°F4.8°C 80% 7.0 mph E11.3 kmh E 14.0 mph22.5 kmh 29.24 in990.2 mb 0.00 in0.0 mm 0.00 in0.0 mm 0.04 in1.0 mm
04:20 PM 46.6°F8.1°C 40.8°F4.9°C 80% 11.0 mph E17.7 kmh E 16.0 mph25.7 kmh 29.24 in990.2 mb 0.00 in0.0 mm 0.00 in0.0 mm 0.04 in1.0 mm
04:25 PM 46.5°F8.1°C 40.7°F4.8°C 80% 11.0 mph ESE17.7 kmh ESE 17.0 mph27.4 kmh 29.24 in990.2 mb 0.00 in0.0 mm 0.00 in0.0 mm 0.04 in1.0 mm
04:30 PM 46.6°F8.1°C 40.8°F4.9°C 80% 10.0 mph E16.1 kmh E 23.0 mph37.0 kmh 29.23 in989.8 mb 0.00 in0.0 mm 0.00 in0.0 mm 0.04 in1.0 mm
04:35 PM 46.4°F8.0°C 40.6°F4.8°C 80% 9.0 mph ESE14.5 kmh ESE 17.0 mph27.4 kmh 29.24 in990.2 mb 0.00 in0.0 mm 0.00 in0.0 mm 0.04 in1.0 mm
04:40 PM 46.1°F7.8°C 40.3°F4.6°C 80% 11.0 mph SE17.7 kmh SE 18.0 mph29.0 kmh 29.24 in990.2 mb 0.00 in0.0 mm 0.00 in0.0 mm 0.04 in1.0 mm
04:45 PM 45.6°F7.6°C 39.8°F4.3°C 80% 5.0 mph SE8.0 kmh SE 18.0 mph29.0 kmh 29.24 in990.2 mb 0.00 in0.0 mm 0.00 in0.0 mm 0.04 in1.0 mm
04:50 PM 45.3°F7.4°C 38.9°F3.8°C 78% 8.0 mph SE12.9 kmh SE 16.0 mph25.7 kmh 29.24 in990.2 mb 0.00 in0.0 mm 0.00 in0.0 mm 0.04 in1.0 mm
04:55 PM 45.2°F7.3°C 38.8°F3.8°C 78% 7.0 mph E11.3 kmh E 18.0 mph29.0 kmh 29.25 in990.5 mb 0.00 in0.0 mm 0.00 in0.0 mm 0.04 in1.0 mm
05:00 PM 45.0°F7.2°C 38.9°F3.8°C 79% 4.0 mph SE6.4 kmh SE 18.0 mph29.0 kmh 29.25 in990.5 mb 0.00 in0.0 mm 0.00 in0.0 mm 0.04 in1.0 mm
05:05 PM 44.8°F7.1°C 38.7°F3.7°C 79% 5.0 mph SE8.0 kmh SE 15.0 mph24.1 kmh 29.26 in990.9 mb 0.00 in0.0 mm 0.00 in0.0 mm 0.04 in1.0 mm
05:10 PM 44.8°F7.1°C 38.7°F3.7°C 79% 6.0 mph SE9.7 kmh SE 15.0 mph24.1 kmh 29.26 in990.9 mb 0.00 in0.0 mm 0.00 in0.0 mm 0.04 in1.0 mm
05:15 PM 44.8°F7.1°C 38.7°F3.7°C 79% 6.0 mph SE9.7 kmh SE 15.0 mph24.1 kmh 29.27 in991.2 mb 0.00 in0.0 mm 0.00 in0.0 mm 0.04 in1.0 mm
05:20 PM 44.7°F7.1°C 38.6°F3.7°C 79% 6.0 mph S9.7 kmh S 8.0 mph12.9 kmh 29.28 in991.5 mb 0.00 in0.0 mm 0.00 in0.0 mm 0.04 in1.0 mm
05:25 PM 44.7°F7.1°C 38.3°F3.5°C 78% 4.0 mph S6.4 kmh S 10.0 mph16.1 kmh 29.28 in991.5 mb 0.00 in0.0 mm 0.00 in0.0 mm 0.04 in1.0 mm
05:30 PM 44.7°F7.1°C 38.6°F3.7°C 79% 10.0 mph SE16.1 kmh SE 22.0 mph35.4 kmh 29.29 in991.9 mb 0.00 in0.0 mm 0.00 in0.0 mm 0.04 in1.0 mm
05:35 PM 44.3°F6.8°C 38.5°F3.6°C 80% 9.0 mph SE14.5 kmh SE 17.0 mph27.4 kmh 29.29 in991.9 mb 0.00 in0.0 mm 0.00 in0.0 mm 0.04 in1.0 mm
05:40 PM 43.7°F6.5°C 38.3°F3.5°C 81% 7.0 mph SE11.3 kmh SE 17.0 mph27.4 kmh 29.30 in992.2 mb 0.00 in0.0 mm 0.00 in0.0 mm 0.04 in1.0 mm
05:45 PM 43.4°F6.3°C 38.3°F3.5°C 82% 9.0 mph SSE14.5 kmh SSE 17.0 mph27.4 kmh 29.29 in991.9 mb 0.00 in0.0 mm 0.00 in0.0 mm 0.04 in1.0 mm
05:50 PM 43.3°F6.3°C 38.5°F3.6°C 83% 7.0 mph E11.3 kmh E 7.0 mph11.3 kmh 29.28 in991.5 mb 0.00 in0.0 mm 0.00 in0.0 mm 0.04 in1.0 mm
05:55 PM 43.2°F6.2°C 38.4°F3.6°C 83% 5.0 mph SE8.0 kmh SE 12.0 mph19.3 kmh 29.29 in991.9 mb 0.00 in0.0 mm 0.00 in0.0 mm 0.04 in1.0 mm
06:05 PM 43.3°F6.3°C 37.2°F2.9°C 79% 6.0 mph SSE9.7 kmh SSE 14.0 mph22.5 kmh 29.29 in991.9 mb 0.00 in0.0 mm 0.00 in0.0 mm 0.04 in1.0 mm
06:10 PM 43.0°F6.1°C 36.9°F2.7°C 79% 4.0 mph SSE6.4 kmh SSE 14.0 mph22.5 kmh 29.29 in991.9 mb 0.00 in0.0 mm 0.00 in0.0 mm 0.04 in1.0 mm
06:15 PM 42.7°F5.9°C 36.7°F2.6°C 79% 8.0 mph SSE12.9 kmh SSE 14.0 mph22.5 kmh 29.29 in991.9 mb 0.00 in0.0 mm 0.00 in0.0 mm 0.04 in1.0 mm
06:20 PM 42.3°F5.7°C 36.6°F2.6°C 80% 3.0 mph SSE4.8 kmh SSE 8.0 mph12.9 kmh 29.29 in991.9 mb 0.00 in0.0 mm 0.00 in0.0 mm 0.04 in1.0 mm
06:25 PM 42.0°F5.6°C 36.6°F2.6°C 81% 2.0 mph SE3.2 kmh SE 8.0 mph12.9 kmh 29.29 in991.9 mb 0.00 in0.0 mm 0.00 in0.0 mm 0.04 in1.0 mm
06:30 PM 41.7°F5.4°C 36.3°F2.4°C 81% 2.0 mph SE3.2 kmh SE 8.0 mph12.9 kmh 29.29 in991.9 mb 0.00 in0.0 mm 0.00 in0.0 mm 0.04 in1.0 mm
06:35 PM 41.5°F5.3°C 36.4°F2.4°C 82% 2.0 mph SE3.2 kmh SE 5.0 mph8.0 kmh 29.29 in991.9 mb 0.00 in0.0 mm 0.00 in0.0 mm 0.04 in1.0 mm
06:40 PM 41.3°F5.2°C 36.2°F2.3°C 82% 2.0 mph SE3.2 kmh SE 5.0 mph8.0 kmh 29.29 in991.9 mb 0.00 in0.0 mm 0.00 in0.0 mm 0.04 in1.0 mm
06:45 PM 41.2°F5.1°C 36.4°F2.4°C 83% 2.0 mph E3.2 kmh E 5.0 mph8.0 kmh 29.30 in992.2 mb 0.00 in0.0 mm 0.00 in0.0 mm 0.04 in1.0 mm
06:50 PM 41.0°F5.0°C 36.5°F2.5°C 84% 1.0 mph E1.6 kmh E 5.0 mph8.0 kmh 29.30 in992.2 mb 0.00 in0.0 mm 0.00 in0.0 mm 0.04 in1.0 mm
06:55 PM 40.8°F4.9°C 36.4°F2.4°C 84% Calm Calm 5.0 mph8.0 kmh 29.31 in992.6 mb 0.00 in0.0 mm 0.00 in0.0 mm 0.04 in1.0 mm
07:00 PM 40.7°F4.8°C 36.6°F2.6°C 85% Calm Calm 5.0 mph8.0 kmh 29.31 in992.6 mb 0.00 in0.0 mm 0.00 in0.0 mm 0.04 in1.0 mm
07:05 PM 40.4°F4.7°C 36.3°F2.4°C 85% 2.0 mph E3.2 kmh E 4.0 mph6.4 kmh 29.32 in992.9 mb 0.00 in0.0 mm 0.00 in0.0 mm 0.04 in1.0 mm
07:10 PM 40.2°F4.6°C 36.4°F2.4°C 86% Calm Calm 4.0 mph6.4 kmh 29.32 in992.9 mb 0.00 in0.0 mm 0.00 in0.0 mm 0.04 in1.0 mm
07:15 PM 40.0°F4.4°C 36.2°F2.3°C 86% Calm Calm 4.0 mph6.4 kmh 29.32 in992.9 mb 0.00 in0.0 mm 0.00 in0.0 mm 0.04 in1.0 mm
07:20 PM 39.9°F4.4°C 36.1°F2.3°C 86% 1.0 mph ESE1.6 kmh ESE 5.0 mph8.0 kmh 29.32 in992.9 mb 0.00 in0.0 mm 0.00 in0.0 mm 0.04 in1.0 mm
07:25 PM 39.8°F4.3°C 36.0°F2.2°C 86% 4.0 mph ESE6.4 kmh ESE 5.0 mph8.0 kmh 29.32 in992.9 mb 0.00 in0.0 mm 0.00 in0.0 mm 0.04 in1.0 mm
07:30 PM 39.8°F4.3°C 35.7°F2.1°C 85% Calm Calm 5.0 mph8.0 kmh 29.32 in992.9 mb 0.00 in0.0 mm 0.00 in0.0 mm 0.04 in1.0 mm
07:35 PM 39.9°F4.4°C 35.8°F2.1°C 85% 4.0 mph E6.4 kmh E 5.0 mph8.0 kmh 29.32 in992.9 mb 0.00 in0.0 mm 0.00 in0.0 mm 0.04 in1.0 mm
07:40 PM 40.0°F4.4°C 35.9°F2.2°C 85% 9.0 mph E14.5 kmh E 9.0 mph14.5 kmh 29.32 in992.9 mb 0.00 in0.0 mm 0.00 in0.0 mm 0.04 in1.0 mm
07:45 PM 40.1°F4.5°C 36.0°F2.2°C 85% 2.0 mph ESE3.2 kmh ESE 9.0 mph14.5 kmh 29.32 in992.9 mb 0.00 in0.0 mm 0.00 in0.0 mm 0.04 in1.0 mm
07:50 PM 40.1°F4.5°C 35.7°F2.1°C 84% Calm Calm 5.0 mph8.0 kmh 29.32 in992.9 mb 0.00 in0.0 mm 0.00 in0.0 mm 0.04 in1.0 mm
07:55 PM 40.1°F4.5°C 35.7°F2.1°C 84% 2.0 mph SE3.2 kmh SE 5.0 mph8.0 kmh 29.32 in992.9 mb 0.00 in0.0 mm 0.00 in0.0 mm 0.04 in1.0 mm
08:00 PM 40.0°F4.4°C 35.6°F2.0°C 84% 2.0 mph ESE3.2 kmh ESE 5.0 mph8.0 kmh 29.33 in993.2 mb 0.00 in0.0 mm 0.00 in0.0 mm 0.04 in1.0 mm
08:05 PM 39.7°F4.3°C 35.6°F2.0°C 85% 4.0 mph N6.4 kmh N 5.0 mph8.0 kmh 29.33 in993.2 mb 0.00 in0.0 mm 0.00 in0.0 mm 0.04 in1.0 mm
08:10 PM 39.5°F4.2°C 35.7°F2.1°C 86% 2.0 mph N3.2 kmh N 6.0 mph9.7 kmh 29.34 in993.6 mb 0.00 in0.0 mm 0.00 in0.0 mm 0.04 in1.0 mm
08:15 PM 39.4°F4.1°C 35.6°F2.0°C 86% Calm Calm 6.0 mph9.7 kmh 29.34 in993.6 mb 0.00 in0.0 mm 0.00 in0.0 mm 0.04 in1.0 mm
08:20 PM 39.2°F4.0°C 35.7°F2.1°C 87% Calm Calm 3.0 mph4.8 kmh 29.34 in993.6 mb 0.00 in0.0 mm 0.00 in0.0 mm 0.04 in1.0 mm
08:25 PM 39.1°F3.9°C 35.3°F1.8°C 86% Calm Calm 3.0 mph4.8 kmh 29.35 in993.9 mb 0.00 in0.0 mm 0.00 in0.0 mm 0.04 in1.0 mm
08:30 PM 38.5°F3.6°C 35.0°F1.7°C 87% Calm Calm 3.0 mph4.8 kmh 29.34 in993.6 mb 0.00 in0.0 mm 0.00 in0.0 mm 0.04 in1.0 mm
08:35 PM 38.3°F3.5°C 34.8°F1.6°C 87% Calm Calm -- 29.35 in993.9 mb 0.00 in0.0 mm 0.00 in0.0 mm 0.04 in1.0 mm
08:40 PM 38.1°F3.4°C 34.9°F1.6°C 88% Calm Calm -- 29.35 in993.9 mb 0.00 in0.0 mm 0.00 in0.0 mm 0.04 in1.0 mm
08:45 PM 37.8°F3.2°C 34.6°F1.4°C 88% 3.0 mph WSW4.8 kmh WSW 3.0 mph4.8 kmh 29.36 in994.2 mb 0.00 in0.0 mm 0.00 in0.0 mm 0.04 in1.0 mm
08:50 PM 37.4°F3.0°C 34.2°F1.2°C 88% Calm Calm 2.0 mph3.2 kmh 29.35 in993.9 mb 0.00 in0.0 mm 0.00 in0.0 mm 0.04 in1.0 mm
08:55 PM 37.1°F2.8°C 34.2°F1.2°C 89% Calm Calm 2.0 mph3.2 kmh 29.35 in993.9 mb 0.00 in0.0 mm 0.00 in0.0 mm 0.04 in1.0 mm
09:00 PM 36.9°F2.7°C 34.0°F1.1°C 89% Calm Calm 2.0 mph3.2 kmh 29.36 in994.2 mb 0.00 in0.0 mm 0.00 in0.0 mm 0.04 in1.0 mm
09:05 PM 36.7°F2.6°C 33.8°F1.0°C 89% Calm Calm -- 29.36 in994.2 mb 0.00 in0.0 mm 0.00 in0.0 mm 0.04 in1.0 mm
09:10 PM 36.7°F2.6°C 34.1°F1.2°C 90% Calm Calm -- 29.36 in994.2 mb 0.00 in0.0 mm 0.00 in0.0 mm 0.04 in1.0 mm
09:15 PM 36.7°F2.6°C 34.1°F1.2°C 90% Calm Calm 2.0 mph3.2 kmh 29.36 in994.2 mb 0.00 in0.0 mm 0.00 in0.0 mm 0.04 in1.0 mm
09:20 PM 36.6°F2.6°C 34.0°F1.1°C 90% Calm Calm -- 29.36 in994.2 mb 0.00 in0.0 mm 0.00 in0.0 mm 0.04 in1.0 mm
09:25 PM 36.9°F2.7°C 34.5°F1.4°C 91% Calm Calm -- 29.36 in994.2 mb 0.00 in0.0 mm 0.00 in0.0 mm 0.04 in1.0 mm
09:30 PM 37.0°F2.8°C 34.6°F1.4°C 91% Calm Calm -- 29.36 in994.2 mb 0.00 in0.0 mm 0.00 in0.0 mm 0.04 in1.0 mm
09:35 PM 36.7°F2.6°C 34.1°F1.2°C 90% Calm Calm -- 29.37 in994.6 mb 0.00 in0.0 mm 0.00 in0.0 mm 0.04 in1.0 mm
09:40 PM 36.9°F2.7°C 34.5°F1.4°C 91% Calm Calm -- 29.37 in994.6 mb 0.00 in0.0 mm 0.00 in0.0 mm 0.04 in1.0 mm
09:45 PM 37.0°F2.8°C 34.4°F1.3°C 90% Calm Calm -- 29.37 in994.6 mb 0.00 in0.0 mm 0.00 in0.0 mm 0.04 in1.0 mm
09:50 PM 37.1°F2.8°C 34.4°F1.3°C 90% Calm Calm -- 29.37 in994.6 mb 0.00 in0.0 mm 0.00 in0.0 mm 0.04 in1.0 mm
09:55 PM 37.2°F2.9°C 34.5°F1.4°C 90% Calm Calm -- 29.37 in994.6 mb 0.00 in0.0 mm 0.00 in0.0 mm 0.04 in1.0 mm
10:00 PM 37.2°F2.9°C 34.3°F1.3°C 89% Calm Calm -- 29.37 in994.6 mb 0.00 in0.0 mm 0.00 in0.0 mm 0.04 in1.0 mm
10:05 PM 36.9°F2.7°C 34.0°F1.1°C 89% Calm Calm -- 29.37 in994.6 mb 0.00 in0.0 mm 0.00 in0.0 mm 0.04 in1.0 mm
10:10 PM 37.0°F2.8°C 34.4°F1.3°C 90% 2.0 mph WSW3.2 kmh WSW 2.0 mph3.2 kmh 29.37 in994.6 mb 0.00 in0.0 mm 0.00 in0.0 mm 0.04 in1.0 mm
10:15 PM 37.5°F3.1°C 34.8°F1.6°C 90% Calm Calm 2.0 mph3.2 kmh 29.37 in994.6 mb 0.00 in0.0 mm 0.00 in0.0 mm 0.04 in1.0 mm
10:20 PM 37.5°F3.1°C 34.3°F1.3°C 88% Calm Calm 1.0 mph1.6 kmh 29.37 in994.6 mb 0.00 in0.0 mm 0.00 in0.0 mm 0.04 in1.0 mm
10:25 PM 37.0°F2.8°C 33.8°F1.0°C 88% Calm Calm 1.0 mph1.6 kmh 29.38 in994.9 mb 0.00 in0.0 mm 0.00 in0.0 mm 0.04 in1.0 mm
10:30 PM 36.7°F2.6°C 33.5°F0.8°C 88% Calm Calm 1.0 mph1.6 kmh 29.38 in994.9 mb 0.00 in0.0 mm 0.00 in0.0 mm 0.04 in1.0 mm
10:35 PM 36.8°F2.7°C 33.9°F1.1°C 89% Calm Calm -- 29.38 in994.9 mb 0.00 in0.0 mm 0.00 in0.0 mm 0.04 in1.0 mm
10:40 PM 36.9°F2.7°C 34.0°F1.1°C 89% Calm Calm -- 29.38 in994.9 mb 0.00 in0.0 mm 0.00 in0.0 mm 0.04 in1.0 mm
10:45 PM 37.0°F2.8°C 34.1°F1.2°C 89% Calm Calm -- 29.37 in994.6 mb 0.00 in0.0 mm 0.00 in0.0 mm 0.04 in1.0 mm
10:50 PM 37.2°F2.9°C 34.3°F1.3°C 89% Calm Calm -- 29.38 in994.9 mb 0.00 in0.0 mm 0.00 in0.0 mm 0.04 in1.0 mm
10:55 PM 37.4°F3.0°C 34.5°F1.4°C 89% 1.0 mph WSW1.6 kmh WSW 4.0 mph6.4 kmh 29.38 in994.9 mb 0.00 in0.0 mm 0.00 in0.0 mm 0.04 in1.0 mm
11:00 PM 37.6°F3.1°C 34.7°F1.5°C 89% Calm Calm 4.0 mph6.4 kmh 29.38 in994.9 mb 0.00 in0.0 mm 0.00 in0.0 mm 0.04 in1.0 mm
11:05 PM 37.9°F3.3°C 35.0°F1.7°C 89% 2.0 mph WSW3.2 kmh WSW 3.0 mph4.8 kmh 29.38 in994.9 mb 0.00 in0.0 mm 0.00 in0.0 mm 0.04 in1.0 mm
11:10 PM 38.1°F3.4°C 34.9°F1.6°C 88% 1.0 mph WSW1.6 kmh WSW 5.0 mph8.0 kmh 29.38 in994.9 mb 0.00 in0.0 mm 0.00 in0.0 mm 0.04 in1.0 mm
11:15 PM 38.1°F3.4°C 34.9°F1.6°C 88% Calm Calm 5.0 mph8.0 kmh 29.38 in994.9 mb 0.00 in0.0 mm 0.00 in0.0 mm 0.04 in1.0 mm
11:20 PM 38.0°F3.3°C 34.8°F1.6°C 88% Calm Calm 3.0 mph4.8 kmh 29.38 in994.9 mb 0.00 in0.0 mm 0.00 in0.0 mm 0.04 in1.0 mm
11:25 PM 37.9°F3.3°C 34.7°F1.5°C 88% Calm Calm 3.0 mph4.8 kmh 29.39 in995.3 mb 0.00 in0.0 mm 0.00 in0.0 mm 0.04 in1.0 mm
11:30 PM 37.8°F3.2°C 34.9°F1.6°C 89% Calm Calm 3.0 mph4.8 kmh 29.39 in995.3 mb 0.00 in0.0 mm 0.00 in0.0 mm 0.04 in1.0 mm
11:35 PM 37.8°F3.2°C 34.9°F1.6°C 89% Calm Calm -- 29.39 in995.3 mb 0.00 in0.0 mm 0.00 in0.0 mm 0.04 in1.0 mm
11:40 PM 37.7°F3.2°C 34.8°F1.6°C 89% Calm Calm -- 29.40 in995.6 mb 0.00 in0.0 mm 0.00 in0.0 mm 0.04 in1.0 mm
11:45 PM 37.7°F3.2°C 34.8°F1.6°C 89% Calm Calm 2.0 mph3.2 kmh 29.40 in995.6 mb 0.00 in0.0 mm 0.00 in0.0 mm 0.04 in1.0 mm
11:50 PM 37.7°F3.2°C 34.5°F1.4°C 88% 7.0 mph WSW11.3 kmh WSW 9.0 mph14.5 kmh 29.40 in995.6 mb 0.00 in0.0 mm 0.00 in0.0 mm 0.04 in1.0 mm
11:55 PM 37.7°F3.2°C 33.0°F0.6°C 83% 7.0 mph WSW11.3 kmh WSW 11.0 mph17.7 kmh 29.41 in995.9 mb 0.00 in0.0 mm 0.00 in0.0 mm 0.04 in1.0 mm